Time;durP1;ratioP1;P1;durP2;ratioP2;P2;SDS_P1;SDS_P2;PMS_P1;PMS_P2;Temp;Humidity;BMP_temperature;BMP_pressure;BME280_temperature;BME280_humidity;BME280_pressure;Samples;Min_cycle;Max_cycle;Signal;HPM_P1;HPM_P2
2023/01/19 00:01:25;;;;;;;13.57;7.43;;;5.40;55.40;;;;;;5007556;28;20217;-48
2023/01/19 00:03:51;;;;;;;10.53;7.60;;;5.40;54.90;;;;;;5009601;28;20193;-48
2023/01/19 00:06:17;;;;;;;9.80;7.30;;;5.40;54.90;;;;;;4998910;28;20428;-49
2023/01/19 00:08:44;;;;;;;13.17;8.10;;;5.40;54.90;;;;;;5001691;28;20193;-48
2023/01/19 00:11:11;;;;;;;14.07;7.60;;;5.40;54.90;;;;;;4995044;28;20441;-48
2023/01/19 00:13:38;;;;;;;11.90;8.10;;;5.40;54.90;;;;;;4995402;28;20451;-48
2023/01/19 00:16:05;;;;;;;20.13;7.97;;;5.40;54.80;;;;;;5008520;28;20449;-48
2023/01/19 00:18:30;;;;;;;8.43;7.40;;;5.50;55.00;;;;;;5011775;28;20848;-48
2023/01/19 00:20:56;;;;;;;9.00;7.20;;;5.50;54.90;;;;;;5008021;28;20484;-51
2023/01/19 00:23:21;;;;;;;11.60;7.70;;;5.40;54.70;;;;;;5001131;28;20285;-49
2023/01/19 00:25:48;;;;;;;11.37;7.53;;;5.50;54.90;;;;;;5008631;28;20198;-47
2023/01/19 00:28:15;;;;;;;9.57;7.13;;;5.40;54.90;;;;;;5009136;28;20550;-49
2023/01/19 00:30:41;;;;;;;12.90;8.40;;;5.40;55.00;;;;;;5009631;28;20452;-48
2023/01/19 00:33:07;;;;;;;10.20;8.23;;;5.30;55.20;;;;;;5003159;28;20449;-49
2023/01/19 00:35:34;;;;;;;8.17;6.90;;;5.30;55.20;;;;;;5001305;28;20445;-50
2023/01/19 00:38:00;;;;;;;9.23;7.70;;;5.20;55.00;;;;;;4991830;28;20446;-48
2023/01/19 00:40:26;;;;;;;11.80;7.70;;;5.20;55.00;;;;;;5004912;28;20502;-48
2023/01/19 00:42:51;;;;;;;10.23;7.30;;;5.20;55.10;;;;;;5007636;28;20813;-49
2023/01/19 00:45:19;;;;;;;10.83;7.90;;;5.20;55.10;;;;;;5008944;28;20197;-49
2023/01/19 00:47:46;;;;;;;9.70;7.60;;;5.20;55.20;;;;;;5009159;28;20260;-49
2023/01/19 00:50:15;;;;;;;10.30;8.00;;;5.20;55.20;;;;;;5008467;28;20511;-48
2023/01/19 00:52:42;;;;;;;8.03;6.30;;;5.20;55.10;;;;;;5005063;28;20955;-48
2023/01/19 00:55:09;;;;;;;10.13;8.00;;;5.20;55.20;;;;;;5004138;28;20445;-49
2023/01/19 00:57:36;;;;;;;13.60;8.10;;;5.20;55.30;;;;;;5005196;28;21086;-47
2023/01/19 01:00:05;;;;;;;14.87;7.50;;;5.20;55.60;;;;;;5007155;28;20492;-49
2023/01/19 01:02:32;;;;;;;9.07;7.20;;;5.20;55.60;;;;;;5006772;28;20436;-49
2023/01/19 01:05:01;;;;;;;9.27;6.90;;;5.20;55.60;;;;;;5005345;28;20498;-50
2023/01/19 01:07:28;;;;;;;12.20;8.13;;;5.10;55.50;;;;;;5002818;28;20488;-47
2023/01/19 01:09:55;;;;;;;10.60;8.20;;;5.10;55.40;;;;;;5002944;28;20440;-48
2023/01/19 01:12:21;;;;;;;11.10;7.73;;;5.10;55.50;;;;;;5010759;28;20440;-48
2023/01/19 01:14:47;;;;;;;13.83;7.30;;;5.00;55.60;;;;;;5002952;28;20433;-48
2023/01/19 01:17:13;;;;;;;11.03;6.87;;;5.10;55.70;;;;;;5004205;28;20637;-48
2023/01/19 01:19:41;;;;;;;8.77;7.10;;;5.10;55.60;;;;;;5014279;28;20559;-48
2023/01/19 01:22:08;;;;;;;9.30;7.43;;;5.10;56.20;;;;;;5014885;28;20518;-48
2023/01/19 01:24:34;;;;;;;9.97;7.60;;;5.10;55.90;;;;;;5010933;28;20430;-48
2023/01/19 01:27:00;;;;;;;9.40;8.10;;;5.10;56.00;;;;;;4995050;28;20418;-48
2023/01/19 01:29:25;;;;;;;9.37;7.63;;;5.10;56.00;;;;;;5004289;28;20955;-51
2023/01/19 01:31:51;;;;;;;9.83;8.20;;;5.10;56.00;;;;;;5003466;28;20198;-49
2023/01/19 01:34:17;;;;;;;10.97;7.43;;;5.20;55.80;;;;;;4998376;28;20205;-50
2023/01/19 01:36:43;;;;;;;14.93;7.70;;;5.10;55.90;;;;;;5007493;28;20603;-49
2023/01/19 01:39:08;;;;;;;12.27;7.03;;;5.10;56.00;;;;;;5010918;28;20237;-51
2023/01/19 01:41:34;;;;;;;10.90;7.37;;;5.10;55.80;;;;;;5001835;28;20512;-49
2023/01/19 01:44:01;;;;;;;8.90;7.60;;;5.10;55.60;;;;;;4999290;28;20264;-50
2023/01/19 01:46:29;;;;;;;8.47;6.90;;;5.10;55.70;;;;;;5003245;28;20190;-49
2023/01/19 01:49:03;;;;;;;9.43;7.50;;;5.10;55.70;;;;;;5006721;28;20475;-49
2023/01/19 01:51:32;;;;;;;9.40;7.60;;;5.10;55.70;;;;;;5004444;28;20457;-49
2023/01/19 01:54:19;;;;;;;11.57;7.67;;;5.10;55.40;;;;;;5006652;28;20437;-49
2023/01/19 01:56:47;;;;;;;13.87;8.70;;;5.00;55.50;;;;;;5006932;28;20525;-49
2023/01/19 01:59:33;;;;;;;11.40;7.83;;;5.00;55.40;;;;;;5009738;28;21011;-49
2023/01/19 02:04:51;;;;;;;10.53;7.00;;;4.90;55.70;;;;;;4999112;28;20455;-49
2023/01/19 02:13:18;;;;;;;9.00;7.60;;;5.10;55.50;;;;;;5005493;28;20501;-49
2023/01/19 02:15:44;;;;;;;9.80;7.40;;;5.00;55.10;;;;;;5004104;28;20992;-50
2023/01/19 02:18:10;;;;;;;10.30;7.10;;;5.00;55.10;;;;;;5001758;28;21210;-49
2023/01/19 02:20:37;;;;;;;9.07;7.20;;;5.00;54.90;;;;;;5006283;28;20495;-49
2023/01/19 02:23:10;;;;;;;9.80;6.57;;;5.00;55.00;;;;;;5004616;28;20209;-49
2023/01/19 02:25:36;;;;;;;8.53;7.37;;;5.00;54.90;;;;;;5001905;28;20583;-50
2023/01/19 02:28:02;;;;;;;8.87;7.33;;;4.90;54.80;;;;;;5005648;28;20528;-49
2023/01/19 02:30:28;;;;;;;7.93;6.40;;;4.90;54.80;;;;;;5006181;28;20285;-49
2023/01/19 02:32:54;;;;;;;11.10;7.37;;;4.90;54.80;;;;;;5008694;28;20450;-49
2023/01/19 02:35:21;;;;;;;9.97;7.67;;;4.90;54.70;;;;;;5005691;28;20452;-49
2023/01/19 02:37:47;;;;;;;12.97;9.00;;;4.80;54.70;;;;;;5006735;28;20560;-49
2023/01/19 02:40:14;;;;;;;11.13;7.37;;;4.80;54.70;;;;;;5002210;28;20495;-53
2023/01/19 02:42:48;;;;;;;11.00;7.90;;;4.80;54.90;;;;;;5003479;28;20539;-50
2023/01/19 02:45:18;;;;;;;10.10;7.70;;;4.80;55.00;;;;;;5001789;28;20438;-52
2023/01/19 02:47:48;;;;;;;10.57;7.53;;;4.80;55.10;;;;;;5004443;28;20916;-49
2023/01/19 02:50:37;;;;;;;9.00;6.87;;;4.90;55.10;;;;;;5010188;28;20999;-49
2023/01/19 02:53:11;;;;;;;11.90;7.73;;;4.70;54.60;;;;;;4998237;28;20449;-50
2023/01/19 02:55:40;;;;;;;13.43;6.83;;;4.70;54.80;;;;;;5004278;28;20452;-49
2023/01/19 02:58:06;;;;;;;9.10;7.20;;;4.80;54.90;;;;;;4999732;28;20438;-49
2023/01/19 03:00:55;;;;;;;8.20;7.10;;;4.90;55.00;;;;;;4994565;28;20559;-49
2023/01/19 03:03:31;;;;;;;8.90;7.33;;;4.90;54.90;;;;;;4991823;28;20836;-50
2023/01/19 03:06:16;;;;;;;8.00;6.50;;;4.90;54.50;;;;;;4993248;28;20432;-50
2023/01/19 03:08:45;;;;;;;8.40;7.03;;;4.90;55.30;;;;;;4993140;28;20789;-50
2023/01/19 03:11:13;;;;;;;8.17;7.23;;;4.80;54.50;;;;;;5007478;28;20437;-50
2023/01/19 03:14:00;;;;;;;7.00;6.20;;;4.60;54.70;;;;;;5006613;28;20437;-48
2023/01/19 03:16:47;;;;;;;13.00;7.70;;;4.50;55.00;;;;;;4993091;28;20804;-49
2023/01/19 03:19:27;;;;;;;11.77;7.27;;;4.40;55.40;;;;;;5007742;28;20555;-48
2023/01/19 03:21:57;;;;;;;10.83;7.00;;;4.40;55.40;;;;;;5012662;28;20454;-49
2023/01/19 03:24:27;;;;;;;7.40;5.60;;;4.50;55.40;;;;;;5004365;28;20936;-49
2023/01/19 03:26:59;;;;;;;8.57;6.90;;;4.50;55.40;;;;;;5003500;28;20457;-51
2023/01/19 03:29:30;;;;;;;8.30;6.90;;;4.60;55.20;;;;;;5006813;28;20474;-49
2023/01/19 03:32:00;;;;;;;9.93;6.10;;;4.30;55.50;;;;;;5001299;28;20464;-49
2023/01/19 03:34:27;;;;;;;10.43;7.13;;;4.30;55.70;;;;;;5000170;28;20444;-49
2023/01/19 03:36:58;;;;;;;10.47;7.13;;;4.30;55.70;;;;;;5008360;28;20457;-49
2023/01/19 03:39:27;;;;;;;10.70;6.67;;;4.30;55.70;;;;;;5009733;28;20452;-49
2023/01/19 03:41:58;;;;;;;10.90;7.17;;;4.30;55.80;;;;;;5008456;28;20459;-49
2023/01/19 03:44:27;;;;;;;8.57;7.20;;;4.30;55.60;;;;;;5009088;28;20929;-48
2023/01/19 03:46:54;;;;;;;7.77;6.37;;;4.10;55.80;;;;;;5008725;28;20452;-49
2023/01/19 03:49:19;;;;;;;10.87;7.00;;;3.70;56.80;;;;;;5003243;28;20495;-49
2023/01/19 03:51:45;;;;;;;12.67;8.00;;;3.70;57.00;;;;;;5001554;28;20526;-48
2023/01/19 03:54:11;;;;;;;8.73;6.70;;;3.70;57.10;;;;;;4998971;28;20198;-49
2023/01/19 03:56:37;;;;;;;9.60;7.07;;;3.70;57.00;;;;;;5007240;28;20445;-48
2023/01/19 03:59:04;;;;;;;8.33;6.53;;;3.80;57.20;;;;;;5001131;28;20235;-49
2023/01/19 04:01:30;;;;;;;9.60;6.93;;;3.60;57.00;;;;;;5007766;28;20531;-48
2023/01/19 04:03:56;;;;;;;11.17;7.17;;;3.30;57.90;;;;;;5006087;28;20441;-48
2023/01/19 04:06:22;;;;;;;10.57;6.93;;;3.10;58.30;;;;;;4999262;28;20608;-49
2023/01/19 04:08:49;;;;;;;14.00;8.60;;;2.90;58.90;;;;;;5010754;28;20202;-50
2023/01/19 04:11:15;;;;;;;10.70;7.73;;;2.70;59.70;;;;;;5001612;28;20189;-48
2023/01/19 04:13:40;;;;;;;9.43;6.60;;;2.60;60.20;;;;;;5008487;28;20475;-49
2023/01/19 04:16:08;;;;;;;10.10;7.47;;;2.50;60.50;;;;;;4995047;28;20477;-49
2023/01/19 04:18:34;;;;;;;8.37;7.33;;;2.50;60.80;;;;;;5007563;28;20198;-49
2023/01/19 04:21:00;;;;;;;9.60;7.30;;;2.50;60.90;;;;;;4997744;28;20497;-49
2023/01/19 04:23:26;;;;;;;10.13;6.80;;;2.50;60.80;;;;;;5003280;28;20432;-49
2023/01/19 04:26:00;;;;;;;7.93;6.37;;;2.40;61.30;;;;;;5004957;28;20448;-49
2023/01/19 04:28:26;;;;;;;9.70;7.50;;;2.50;61.50;;;;;;4999181;28;20441;-50
2023/01/19 04:30:52;;;;;;;10.33;7.83;;;2.90;60.50;;;;;;5006724;28;20790;-48
2023/01/19 04:33:18;;;;;;;8.70;6.93;;;3.10;59.70;;;;;;4998650;28;20445;-49
2023/01/19 04:35:45;;;;;;;13.03;7.87;;;3.10;59.30;;;;;;5001526;28;20803;-50
2023/01/19 04:38:10;;;;;;;10.27;6.73;;;3.20;59.30;;;;;;5008380;28;20942;-50
2023/01/19 04:40:36;;;;;;;14.47;8.30;;;3.50;58.90;;;;;;5007731;28;20489;-49
2023/01/19 04:43:01;;;;;;;12.30;6.80;;;3.50;58.30;;;;;;5007103;28;20685;-49
2023/01/19 04:45:27;;;;;;;9.80;6.90;;;3.60;58.10;;;;;;4997908;28;20269;-49
2023/01/19 04:47:52;;;;;;;11.63;7.70;;;3.70;57.80;;;;;;5000507;28;20233;-48
2023/01/19 04:50:18;;;;;;;9.97;7.00;;;3.70;57.30;;;;;;5007553;28;20201;-50
2023/01/19 04:52:44;;;;;;;10.57;7.60;;;3.50;57.50;;;;;;5006558;28;20204;-48
2023/01/19 04:55:10;;;;;;;11.03;8.37;;;3.40;57.80;;;;;;5000681;28;20194;-49
2023/01/19 04:57:36;;;;;;;11.20;7.87;;;3.40;57.90;;;;;;4991549;28;20456;-53
2023/01/19 05:00:03;;;;;;;10.87;7.50;;;3.50;58.00;;;;;;5004671;28;20235;-49
2023/01/19 05:02:28;;;;;;;10.27;7.63;;;3.50;57.60;;;;;;5002497;28;20286;-49
2023/01/19 05:04:54;;;;;;;13.70;8.67;;;3.50;57.90;;;;;;5002957;28;20520;-49
2023/01/19 05:07:19;;;;;;;8.97;7.53;;;3.70;57.70;;;;;;5009878;28;20193;-49
2023/01/19 05:09:45;;;;;;;9.60;7.60;;;3.70;57.20;;;;;;5000005;28;20205;-49
2023/01/19 05:12:11;;;;;;;10.63;7.00;;;3.60;57.20;;;;;;5008507;28;20671;-48
2023/01/19 05:14:36;;;;;;;14.60;7.13;;;3.60;57.40;;;;;;4997531;28;20266;-49
2023/01/19 05:17:02;;;;;;;10.10;8.20;;;3.80;57.20;;;;;;5001016;28;20417;-49
2023/01/19 05:19:28;;;;;;;13.17;7.87;;;4.00;56.90;;;;;;4995414;28;20199;-51
2023/01/19 05:21:54;;;;;;;13.53;8.63;;;4.10;56.50;;;;;;4992413;28;20223;-49
2023/01/19 05:24:20;;;;;;;10.53;7.83;;;4.20;55.80;;;;;;5000445;28;20808;-49
2023/01/19 05:26:45;;;;;;;11.13;7.23;;;4.20;55.80;;;;;;5000472;28;20201;-49
2023/01/19 05:29:11;;;;;;;10.57;7.90;;;4.30;55.70;;;;;;5007995;28;20514;-49
2023/01/19 05:31:37;;;;;;;11.80;8.20;;;4.20;55.30;;;;;;4991855;28;20626;-50
2023/01/19 05:34:03;;;;;;;8.80;7.20;;;4.10;55.50;;;;;;5007009;28;20936;-49
2023/01/19 05:36:29;;;;;;;9.70;7.57;;;4.00;55.80;;;;;;5010171;28;20197;-49
2023/01/19 05:38:55;;;;;;;11.30;7.17;;;4.00;55.80;;;;;;5004191;28;20797;-49
2023/01/19 05:41:20;;;;;;;12.90;8.40;;;4.20;55.80;;;;;;4998334;28;20226;-50
2023/01/19 05:43:46;;;;;;;8.70;7.47;;;4.10;55.40;;;;;;5005728;28;20649;-50
2023/01/19 05:46:12;;;;;;;8.90;7.17;;;4.10;55.70;;;;;;5007219;28;20205;-51
2023/01/19 05:48:37;;;;;;;8.30;7.27;;;4.00;55.60;;;;;;5008435;28;20241;-49
2023/01/19 05:51:04;;;;;;;11.40;8.40;;;3.90;55.70;;;;;;5004336;28;20220;-49
2023/01/19 05:53:29;;;;;;;10.50;7.00;;;3.80;55.90;;;;;;4998622;28;20495;-49
2023/01/19 05:56:00;;;;;;;11.13;7.87;;;3.70;56.50;;;;;;4998158;28;20449;-49
2023/01/19 05:58:25;;;;;;;11.77;8.03;;;3.70;56.70;;;;;;5010070;28;20198;-51
2023/01/19 06:00:51;;;;;;;9.43;7.03;;;3.60;56.50;;;;;;5007553;28;20567;-49
2023/01/19 06:03:17;;;;;;;8.87;7.20;;;3.70;56.70;;;;;;5003791;28;20210;-49
2023/01/19 06:05:42;;;;;;;12.23;8.20;;;3.80;57.00;;;;;;5010500;28;21993;-49
2023/01/19 06:08:08;;;;;;;10.90;7.80;;;3.80;56.80;;;;;;5004916;28;20453;-49
2023/01/19 06:10:33;;;;;;;10.27;7.47;;;3.90;56.60;;;;;;5009574;28;20277;-49
2023/01/19 06:12:59;;;;;;;10.33;6.73;;;3.80;56.60;;;;;;5008387;28;20203;-49
2023/01/19 06:15:25;;;;;;;11.03;8.30;;;3.90;56.60;;;;;;5006242;28;20194;-50
2023/01/19 06:17:50;;;;;;;12.83;8.47;;;3.90;56.30;;;;;;5007441;28;20190;-49
2023/01/19 06:20:16;;;;;;;10.37;8.07;;;4.10;56.30;;;;;;5004463;28;20312;-49
2023/01/19 06:22:41;;;;;;;8.77;6.17;;;4.20;55.90;;;;;;4999456;28;20194;-49
2023/01/19 06:25:07;;;;;;;9.57;7.50;;;4.40;55.80;;;;;;5005380;28;20254;-50
2023/01/19 06:27:33;;;;;;;8.97;7.10;;;4.50;55.60;;;;;;5004803;28;20583;-49
2023/01/19 06:29:59;;;;;;;11.67;7.30;;;4.60;55.40;;;;;;5006217;28;20555;-49
2023/01/19 06:32:24;;;;;;;11.33;6.60;;;4.80;58.60;;;;;;4996156;28;20671;-49
2023/01/19 06:34:50;;;;;;;8.90;6.90;;;5.20;64.00;;;;;;5011419;28;20194;-51
2023/01/19 06:37:15;;;;;;;10.50;7.73;;;5.70;63.50;;;;;;5002310;28;20233;-49
2023/01/19 06:39:42;;;;;;;10.90;7.40;;;6.10;61.40;;;;;;5003766;28;20235;-49
2023/01/19 06:42:08;;;;;;;9.00;7.50;;;6.30;57.70;;;;;;4999963;28;20944;-49
2023/01/19 06:44:33;;;;;;;11.43;8.53;;;6.20;54.50;;;;;;5006617;28;20495;-49
2023/01/19 06:46:59;;;;;;;12.20;7.20;;;6.10;52.50;;;;;;5002843;28;20194;-52
2023/01/19 06:49:24;;;;;;;10.30;7.50;;;6.00;52.20;;;;;;5006565;28;20221;-49
2023/01/19 06:51:50;;;;;;;12.50;7.83;;;5.80;51.60;;;;;;5005118;28;20355;-50
2023/01/19 06:54:15;;;;;;;9.00;8.07;;;5.70;51.80;;;;;;5008938;28;20596;-49
2023/01/19 06:56:41;;;;;;;9.80;7.23;;;5.40;51.70;;;;;;5004655;28;20202;-49
2023/01/19 06:59:08;;;;;;;9.27;7.40;;;5.40;52.10;;;;;;5007008;28;20202;-49
2023/01/19 07:01:34;;;;;;;10.33;7.40;;;5.30;52.40;;;;;;5005381;28;20377;-50
2023/01/19 07:03:59;;;;;;;11.27;6.80;;;5.30;52.50;;;;;;5000547;28;20671;-50
2023/01/19 07:06:25;;;;;;;8.63;7.00;;;5.30;52.60;;;;;;5004831;28;20193;-49
2023/01/19 07:08:51;;;;;;;10.00;6.93;;;5.20;52.50;;;;;;5007946;28;20192;-51
2023/01/19 07:11:16;;;;;;;9.27;7.20;;;5.20;52.60;;;;;;5005602;28;20198;-49
2023/01/19 07:13:43;;;;;;;12.67;7.57;;;5.10;52.50;;;;;;5003574;28;20202;-50
2023/01/19 07:16:11;;;;;;;11.20;7.40;;;5.10;52.50;;;;;;5011447;28;20198;-49
2023/01/19 07:18:38;;;;;;;13.47;9.90;;;5.00;52.60;;;;;;5001889;28;21530;-52
2023/01/19 07:21:04;;;;;;;10.60;7.50;;;4.90;52.60;;;;;;4997661;28;20999;-50
2023/01/19 07:23:30;;;;;;;14.70;9.83;;;4.90;52.90;;;;;;4994831;28;20849;-52
2023/01/19 07:26:02;;;;;;;12.80;9.43;;;4.80;52.80;;;;;;5005656;28;20453;-51
2023/01/19 07:28:28;;;;;;;10.83;8.17;;;4.60;53.00;;;;;;4998121;28;20203;-49
2023/01/19 07:30:54;;;;;;;7.80;6.63;;;4.50;53.30;;;;;;5004424;28;20442;-49
2023/01/19 07:33:24;;;;;;;10.40;8.13;;;4.50;53.50;;;;;;5001644;28;20468;-53
2023/01/19 07:35:51;;;;;;;13.53;7.93;;;4.60;53.50;;;;;;5004745;28;20449;-52
2023/01/19 07:38:18;;;;;;;11.17;8.40;;;4.60;53.60;;;;;;5002004;28;20449;-52
2023/01/19 07:40:47;;;;;;;22.20;12.27;;;4.70;53.60;;;;;;5005782;28;20489;-50
2023/01/19 07:43:13;;;;;;;17.53;11.30;;;4.70;53.60;;;;;;5002905;28;20529;-49
2023/01/19 07:45:38;;;;;;;12.37;8.53;;;4.70;53.80;;;;;;5011042;28;20452;-49
2023/01/19 07:48:04;;;;;;;14.77;10.20;;;4.60;53.90;;;;;;5001091;28;20474;-51
2023/01/19 07:50:30;;;;;;;10.70;8.60;;;4.60;54.00;;;;;;5008849;28;20203;-49
2023/01/19 07:52:56;;;;;;;16.27;10.60;;;4.50;54.20;;;;;;5008029;28;20281;-50
2023/01/19 07:55:22;;;;;;;15.27;9.97;;;4.40;54.40;;;;;;5006248;28;20496;-51
2023/01/19 07:57:52;;;;;;;11.07;8.67;;;4.20;54.70;;;;;;5006255;28;20193;-52
2023/01/19 08:00:20;;;;;;;10.43;8.27;;;3.80;55.30;;;;;;5005582;28;20485;-51
2023/01/19 08:02:48;;;;;;;11.20;8.03;;;3.80;56.00;;;;;;5008683;28;20891;-50
2023/01/19 08:05:15;;;;;;;13.10;8.87;;;3.80;56.00;;;;;;5005844;28;20473;-49
2023/01/19 08:07:41;;;;;;;9.83;8.80;;;3.80;55.90;;;;;;5006789;28;20449;-50
2023/01/19 08:10:08;;;;;;;11.80;8.93;;;3.80;56.40;;;;;;4998558;28;20445;-51
2023/01/19 08:12:33;;;;;;;13.50;7.83;;;3.90;56.00;;;;;;5008016;28;20182;-50
2023/01/19 08:14:59;;;;;;;8.67;6.80;;;3.80;55.80;;;;;;5002793;28;20464;-49
2023/01/19 08:17:24;;;;;;;8.30;6.30;;;3.70;56.10;;;;;;4999001;28;20199;-49
2023/01/19 08:19:50;;;;;;;6.70;5.50;;;3.80;56.40;;;;;;5005501;28;20221;-49
2023/01/19 08:22:16;;;;;;;12.00;7.10;;;4.10;56.20;;;;;;5003566;28;21099;-49
2023/01/19 08:24:41;;;;;;;11.30;6.87;;;4.20;55.50;;;;;;4995973;28;20202;-49
2023/01/19 08:27:08;;;;;;;10.17;8.23;;;4.40;55.70;;;;;;5005707;28;20194;-48
2023/01/19 08:29:34;;;;;;;9.60;8.13;;;4.40;55.80;;;;;;4999476;28;20201;-52
2023/01/19 08:32:01;;;;;;;9.23;7.10;;;4.50;55.90;;;;;;5006374;28;20440;-53
2023/01/19 08:34:29;;;;;;;9.30;6.90;;;4.30;56.00;;;;;;5004409;28;20190;-53
2023/01/19 08:36:54;;;;;;;10.10;7.27;;;4.00;56.80;;;;;;4996787;28;20975;-54
2023/01/19 08:39:22;;;;;;;12.50;7.30;;;4.10;56.40;;;;;;4994916;28;20473;-53
2023/01/19 08:41:48;;;;;;;13.33;8.20;;;4.20;56.80;;;;;;5006034;28;20672;-52
2023/01/19 08:44:14;;;;;;;8.27;6.67;;;4.50;56.70;;;;;;5002484;28;20956;-55
2023/01/19 08:46:40;;;;;;;8.33;5.70;;;4.60;55.60;;;;;;5005674;28;20863;-51
2023/01/19 08:49:06;;;;;;;12.60;6.40;;;4.70;55.20;;;;;;5001634;28;20495;-52
2023/01/19 08:51:32;;;;;;;6.20;5.37;;;4.90;54.40;;;;;;5000780;28;20662;-54
2023/01/19 08:53:57;;;;;;;8.20;5.63;;;4.90;54.40;;;;;;5002158;28;20229;-54
2023/01/19 08:56:23;;;;;;;6.93;5.57;;;4.80;53.90;;;;;;4999667;28;20305;-54
2023/01/19 08:58:48;;;;;;;9.20;6.00;;;4.80;53.80;;;;;;5005044;28;20201;-54
2023/01/19 09:01:15;;;;;;;5.60;4.87;;;4.80;53.70;;;;;;4999588;28;20222;-55
2023/01/19 09:03:42;;;;;;;10.90;5.97;;;4.90;53.20;;;;;;5000589;28;20190;-51
2023/01/19 09:06:09;;;;;;;8.80;5.97;;;4.90;52.80;;;;;;4998960;28;20437;-53
2023/01/19 09:08:35;;;;;;;7.47;6.20;;;5.00;53.00;;;;;;5008478;28;20843;-50
2023/01/19 09:11:01;;;;;;;9.23;6.37;;;4.90;53.70;;;;;;5002476;28;20441;-53
2023/01/19 09:13:26;;;;;;;7.77;5.80;;;5.00;53.40;;;;;;5002178;28;20190;-51
2023/01/19 09:15:52;;;;;;;11.90;5.97;;;5.10;53.00;;;;;;5003675;28;20245;-53
2023/01/19 09:18:19;;;;;;;10.13;5.83;;;5.10;52.60;;;;;;5004903;28;20198;-54
2023/01/19 09:20:47;;;;;;;7.97;5.70;;;5.20;52.50;;;;;;5005120;28;20316;-51
2023/01/19 09:23:16;;;;;;;7.50;5.77;;;5.20;52.40;;;;;;5003340;28;20444;-53
2023/01/19 09:25:44;;;;;;;10.03;5.80;;;5.30;52.40;;;;;;5005729;28;20460;-53
2023/01/19 09:28:13;;;;;;;5.87;5.27;;;5.50;52.00;;;;;;5006198;28;20449;-54
2023/01/19 09:30:40;;;;;;;9.20;5.67;;;5.60;52.00;;;;;;5004816;28;20803;-51
2023/01/19 09:33:09;;;;;;;6.80;5.00;;;5.70;52.00;;;;;;5010993;28;20596;-51
2023/01/19 09:35:36;;;;;;;7.30;5.90;;;5.80;51.90;;;;;;4998462;28;20440;-54
2023/01/19 09:38:03;;;;;;;7.17;5.30;;;6.00;51.90;;;;;;5011479;28;20817;-54
2023/01/19 09:40:29;;;;;;;5.17;4.67;;;5.80;52.00;;;;;;4997667;28;20497;-54
2023/01/19 09:43:03;;;;;;;9.97;5.37;;;5.80;52.60;;;;;;5009502;28;20528;-55
2023/01/19 09:45:34;;;;;;;9.10;5.93;;;5.80;52.70;;;;;;5008837;28;20882;-52
2023/01/19 09:48:04;;;;;;;6.33;5.07;;;5.80;52.90;;;;;;5014394;28;20483;-54
2023/01/19 09:50:45;;;;;;;7.00;5.50;;;5.80;52.90;;;;;;5011946;28;20485;-54
2023/01/19 09:53:26;;;;;;;11.00;6.03;;;5.80;52.10;;;;;;5013725;28;20424;-54
2023/01/19 09:55:52;;;;;;;9.03;6.10;;;5.60;52.60;;;;;;5000819;28;20936;-53
2023/01/19 09:58:18;;;;;;;7.33;5.30;;;5.60;53.00;;;;;;5013372;28;20413;-54
2023/01/19 10:01:05;;;;;;;7.83;6.13;;;5.70;53.40;;;;;;5005930;28;20229;-54
2023/01/19 10:03:34;;;;;;;6.97;6.17;;;5.70;53.10;;;;;;5005670;28;20193;-53
2023/01/19 10:06:07;;;;;;;10.27;6.00;;;5.60;54.20;;;;;;5001246;28;20451;-54
2023/01/19 10:08:39;;;;;;;6.60;5.60;;;5.50;54.90;;;;;;5008159;28;20445;-54
2023/01/19 10:11:24;;;;;;;8.13;5.60;;;5.30;54.90;;;;;;4994550;28;20864;-51
2023/01/19 10:13:51;;;;;;;8.30;5.30;;;5.10;55.60;;;;;;5011398;28;20479;-54
2023/01/19 10:16:25;;;;;;;11.40;6.20;;;5.20;55.60;;;;;;5014051;28;20421;-55
2023/01/19 10:18:56;;;;;;;9.23;6.27;;;5.20;55.40;;;;;;5012515;28;20940;-55
2023/01/19 10:21:40;;;;;;;6.37;5.40;;;5.40;55.10;;;;;;4996084;28;20503;-55
2023/01/19 10:24:37;;;;;;;8.40;6.30;;;5.40;54.30;;;;;;5010074;28;20934;-53
2023/01/19 10:27:17;;;;;;;10.40;6.03;;;5.30;54.30;;;;;;5009820;28;20504;-53
2023/01/19 10:29:43;;;;;;;7.53;5.93;;;5.50;54.70;;;;;;4992470;28;20433;-53
2023/01/19 10:32:16;;;;;;;7.73;4.70;;;5.30;54.40;;;;;;5003687;28;20463;-53
2023/01/19 10:34:42;;;;;;;6.67;5.60;;;5.50;54.10;;;;;;5012182;28;20881;-53
2023/01/19 10:37:16;;;;;;;8.07;5.67;;;5.70;54.20;;;;;;5004997;28;20445;-54
2023/01/19 10:39:44;;;;;;;5.57;4.43;;;6.00;53.80;;;;;;5008033;28;20940;-53
2023/01/19 10:42:14;;;;;;;5.40;4.83;;;6.10;52.60;;;;;;5013186;28;20531;-54
2023/01/19 10:44:40;;;;;;;6.90;5.50;;;6.20;52.20;;;;;;4998410;28;20532;-51
2023/01/19 10:47:15;;;;;;;12.30;5.20;;;6.30;51.80;;;;;;4997995;28;20434;-53
2023/01/19 10:49:42;;;;;;;6.50;5.10;;;6.40;51.70;;;;;;5004889;28;20838;-53
2023/01/19 10:52:35;;;;;;;4.97;4.53;;;6.50;51.50;;;;;;5002359;28;20445;-51
2023/01/19 10:55:05;;;;;;;5.70;4.77;;;6.50;52.00;;;;;;5003223;28;20477;-54
2023/01/19 10:57:35;;;;;;;6.40;4.93;;;6.50;51.60;;;;;;5005567;28;20441;-51
2023/01/19 11:00:03;;;;;;;6.60;5.37;;;6.60;51.20;;;;;;5005050;28;20571;-51
2023/01/19 11:02:31;;;;;;;5.43;4.40;;;6.70;51.00;;;;;;5008336;28;20448;-53
2023/01/19 11:05:20;;;;;;;7.30;4.60;;;6.70;51.50;;;;;;4999446;28;20456;-51
2023/01/19 11:07:46;;;;;;;5.63;4.33;;;6.90;51.70;;;;;;5002101;28;20888;-52
2023/01/19 11:10:15;;;;;;;5.20;4.30;;;6.50;50.90;;;;;;4998522;28;20541;-51
2023/01/19 11:12:46;;;;;;;7.83;4.50;;;6.40;51.50;;;;;;5005081;28;20206;-51
2023/01/19 11:15:20;;;;;;;5.50;4.50;;;6.50;51.90;;;;;;5011022;28;20504;-54
2023/01/19 11:17:47;;;;;;;5.03;4.10;;;6.60;51.30;;;;;;4995500;28;20465;-54
2023/01/19 11:20:22;;;;;;;8.33;4.80;;;6.70;51.30;;;;;;5003622;28;20475;-51
2023/01/19 11:23:02;;;;;;;5.60;4.20;;;6.80;51.20;;;;;;4996124;28;20525;-51
2023/01/19 11:25:31;;;;;;;4.50;3.87;;;6.90;51.30;;;;;;5002225;28;20491;-51
2023/01/19 11:27:57;;;;;;;4.23;3.83;;;6.70;51.10;;;;;;5009064;28;20495;-55
2023/01/19 11:30:24;;;;;;;5.60;4.30;;;6.50;51.70;;;;;;4998802;28;20454;-53
2023/01/19 11:32:50;;;;;;;6.57;4.80;;;6.50;51.80;;;;;;5002254;28;20241;-52
2023/01/19 11:35:34;;;;;;;10.07;5.90;;;6.40;51.60;;;;;;5006868;28;20551;-54
2023/01/19 11:38:12;;;;;;;7.23;4.20;;;6.40;52.50;;;;;;5006254;28;20552;-54
2023/01/19 11:40:38;;;;;;;6.70;5.40;;;6.40;51.90;;;;;;4997692;28;20488;-53
2023/01/19 11:43:04;;;;;;;8.00;5.10;;;6.40;52.50;;;;;;4998193;28;20474;-52
2023/01/19 11:45:32;;;;;;;6.63;5.10;;;6.70;52.50;;;;;;5003804;28;20472;-51
2023/01/19 11:48:04;;;;;;;5.90;4.93;;;6.90;52.30;;;;;;4999593;28;20230;-51
2023/01/19 11:50:42;;;;;;;6.77;4.30;;;6.90;52.00;;;;;;5005435;28;20446;-54
2023/01/19 11:53:28;;;;;;;4.67;4.17;;;6.70;51.90;;;;;;5003188;28;21063;-51
2023/01/19 11:55:53;;;;;;;6.67;4.60;;;6.90;52.40;;;;;;5006065;28;20455;-52
2023/01/19 11:58:19;;;;;;;6.97;5.40;;;7.00;52.00;;;;;;5006195;28;20453;-51
2023/01/19 12:01:09;;;;;;;9.60;4.40;;;7.20;51.90;;;;;;5005936;28;20229;-50
2023/01/19 12:03:45;;;;;;;6.80;4.80;;;7.30;51.50;;;;;;5009115;28;20451;-50
2023/01/19 12:06:13;;;;;;;4.67;4.20;;;7.10;50.90;;;;;;5009204;28;20460;-52
2023/01/19 12:08:43;;;;;;;4.40;4.00;;;7.10;51.40;;;;;;5001435;28;20811;-51
2023/01/19 12:11:15;;;;;;;5.70;4.53;;;7.20;51.50;;;;;;5009653;28;20472;-51
2023/01/19 12:13:42;;;;;;;8.50;4.90;;;7.50;51.00;;;;;;5002777;28;20539;-51
2023/01/19 12:16:20;;;;;;;5.03;4.03;;;7.50;50.80;;;;;;5003647;28;20532;-51
2023/01/19 12:19:08;;;;;;;6.00;4.30;;;7.60;50.60;;;;;;5000807;28;20824;-50
2023/01/19 12:21:34;;;;;;;7.03;4.30;;;7.70;50.80;;;;;;5002939;28;20496;-51
2023/01/19 12:24:09;;;;;;;6.97;4.60;;;7.80;50.60;;;;;;5006023;28;20441;-51
2023/01/19 12:26:42;;;;;;;8.10;4.80;;;7.70;50.50;;;;;;5009248;28;20525;-50
2023/01/19 12:29:14;;;;;;;5.40;4.43;;;7.80;50.40;;;;;;4995128;28;20445;-51
2023/01/19 12:31:41;;;;;;;5.23;4.43;;;7.80;49.90;;;;;;4995016;28;20473;-51
2023/01/19 12:34:29;;;;;;;6.93;4.87;;;7.70;49.70;;;;;;5004387;28;20450;-51
2023/01/19 12:37:01;;;;;;;9.13;5.73;;;7.70;50.60;;;;;;5000359;28;20453;-52
2023/01/19 12:39:27;;;;;;;5.87;4.90;;;7.70;50.50;;;;;;5006925;28;20555;-50
2023/01/19 12:42:13;;;;;;;8.37;5.27;;;7.80;50.40;;;;;;4997889;28;20937;-50
2023/01/19 12:44:40;;;;;;;6.57;4.90;;;7.90;50.30;;;;;;4995259;28;20337;-51
2023/01/19 12:47:14;;;;;;;9.93;5.47;;;7.90;50.00;;;;;;5006351;28;20445;-50
2023/01/19 12:49:43;;;;;;;5.73;5.13;;;7.90;50.20;;;;;;5006547;28;20464;-52
2023/01/19 12:52:29;;;;;;;5.13;4.63;;;7.90;50.40;;;;;;5004308;28;20453;-51
2023/01/19 12:55:19;;;;;;;6.20;5.00;;;8.00;50.20;;;;;;5006082;28;20460;-51
2023/01/19 12:57:57;;;;;;;6.20;4.93;;;8.00;49.70;;;;;;5004784;28;20467;-50
2023/01/19 13:00:23;;;;;;;7.03;5.20;;;8.00;49.70;;;;;;4995070;28;20483;-49
2023/01/19 13:03:01;;;;;;;10.47;5.57;;;7.80;49.30;;;;;;5012236;28;20445;-50
2023/01/19 13:05:29;;;;;;;5.80;4.87;;;7.80;50.00;;;;;;5012619;28;20243;-50
2023/01/19 13:08:01;;;;;;;6.40;4.80;;;7.80;50.00;;;;;;5004343;28;20451;-54
2023/01/19 13:11:01;;;;;;;7.40;5.50;;;7.90;50.10;;;;;;5005792;28;20481;-50